SYR weather

Syracuse Hancock International Airport
Syracuse, New York, United States

Public forecast

Using degrees Fahrenheit for public forecast. Weather courtesy of forecast.io.

Current aviation weather report (METAR) for Syracuse Hancock International Airport

Retrieved 2020/04/07 09:54 UTC (17 minutes ago):

KSYR 070954Z 27005KT 10SM SCT070 BKN095 BKN220 07/00 A2995 RMK AO2 SLP140 T00670000

Aviation forecast (TAF) for Syracuse Hancock International Airport

Forecast is more than 6 hours old.

Retrieved 2020-04-07 00:22 UTC (10 hours ago):

TAF KSYR 062320Z 0700/0724 28006KT P6SM BKN200 FM070900 VRB04KT P6SM SCT200 FM072200 VRB04KT P6SM BKN090